sensor_id;sensor_type;location;lat;lon;timestamp;P1;durP1;ratioP1;P2;durP2;ratioP2
31438;SDS011;18062;48.872;9.220;2023-08-17T00:01:53;4.93;;;3.87;;
31438;SDS011;18062;48.872;9.220;2023-08-17T00:04:19;6.63;;;4.50;;
31438;SDS011;18062;48.872;9.220;2023-08-17T00:06:45;7.10;;;4.90;;
31438;SDS011;18062;48.872;9.220;2023-08-17T00:09:12;6.67;;;5.57;;
31438;SDS011;18062;48.872;9.220;2023-08-17T00:11:38;5.57;;;5.00;;
31438;SDS011;18062;48.872;9.220;2023-08-17T00:14:05;6.70;;;4.60;;
31438;SDS011;18062;48.872;9.220;2023-08-17T00:16:31;6.20;;;5.60;;
31438;SDS011;18062;48.872;9.220;2023-08-17T00:18:57;5.57;;;4.77;;
31438;SDS011;18062;48.872;9.220;2023-08-17T00:21:23;5.27;;;4.70;;
31438;SDS011;18062;48.872;9.220;2023-08-17T00:23:49;4.77;;;4.37;;
31438;SDS011;18062;48.872;9.220;2023-08-17T00:26:15;5.50;;;5.00;;
31438;SDS011;18062;48.872;9.220;2023-08-17T00:28:41;6.30;;;4.53;;
31438;SDS011;18062;48.872;9.220;2023-08-17T00:31:07;6.33;;;5.63;;
31438;SDS011;18062;48.872;9.220;2023-08-17T00:33:33;5.83;;;5.30;;
31438;SDS011;18062;48.872;9.220;2023-08-17T00:38:36;4.40;;;4.00;;
31438;SDS011;18062;48.872;9.220;2023-08-17T00:41:02;5.30;;;4.40;;
31438;SDS011;18062;48.872;9.220;2023-08-17T00:43:28;7.87;;;4.70;;
31438;SDS011;18062;48.872;9.220;2023-08-17T00:45:54;4.77;;;4.37;;
31438;SDS011;18062;48.872;9.220;2023-08-17T00:48:20;6.73;;;5.73;;
31438;SDS011;18062;48.872;9.220;2023-08-17T00:50:47;5.40;;;4.90;;
31438;SDS011;18062;48.872;9.220;2023-08-17T00:53:14;5.50;;;5.00;;
31438;SDS011;18062;48.872;9.220;2023-08-17T00:55:41;7.53;;;6.73;;
31438;SDS011;18062;48.872;9.220;2023-08-17T00:58:07;10.47;;;6.27;;
31438;SDS011;18062;48.872;9.220;2023-08-17T01:00:34;5.57;;;4.70;;
31438;SDS011;18062;48.872;9.220;2023-08-17T01:03:00;5.63;;;5.13;;
31438;SDS011;18062;48.872;9.220;2023-08-17T01:05:26;6.10;;;5.27;;
31438;SDS011;18062;48.872;9.220;2023-08-17T01:07:53;7.30;;;5.77;;
31438;SDS011;18062;48.872;9.220;2023-08-17T01:10:19;7.63;;;6.83;;
31438;SDS011;18062;48.872;9.220;2023-08-17T01:12:51;5.93;;;5.37;;
31438;SDS011;18062;48.872;9.220;2023-08-17T01:15:21;7.83;;;6.77;;
31438;SDS011;18062;48.872;9.220;2023-08-17T01:17:54;9.57;;;6.37;;
31438;SDS011;18062;48.872;9.220;2023-08-17T01:20:23;6.63;;;5.97;;
31438;SDS011;18062;48.872;9.220;2023-08-17T01:22:51;8.53;;;5.90;;
31438;SDS011;18062;48.872;9.220;2023-08-17T01:25:18;8.30;;;7.17;;
31438;SDS011;18062;48.872;9.220;2023-08-17T01:27:45;6.90;;;6.20;;
31438;SDS011;18062;48.872;9.220;2023-08-17T01:30:12;6.83;;;5.50;;
31438;SDS011;18062;48.872;9.220;2023-08-17T01:32:48;9.43;;;7.67;;
31438;SDS011;18062;48.872;9.220;2023-08-17T01:37:44;8.93;;;7.00;;
31438;SDS011;18062;48.872;9.220;2023-08-17T01:40:12;8.03;;;7.23;;
31438;SDS011;18062;48.872;9.220;2023-08-17T01:42:38;11.37;;;7.13;;
31438;SDS011;18062;48.872;9.220;2023-08-17T01:45:05;5.93;;;5.37;;
31438;SDS011;18062;48.872;9.220;2023-08-17T01:47:31;6.50;;;5.57;;
31438;SDS011;18062;48.872;9.220;2023-08-17T01:49:57;11.23;;;7.87;;
31438;SDS011;18062;48.872;9.220;2023-08-17T01:52:26;8.43;;;7.37;;
31438;SDS011;18062;48.872;9.220;2023-08-17T01:54:53;8.03;;;7.23;;
31438;SDS011;18062;48.872;9.220;2023-08-17T01:57:19;9.60;;;7.37;;
31438;SDS011;18062;48.872;9.220;2023-08-17T01:59:45;10.37;;;7.90;;
31438;SDS011;18062;48.872;9.220;2023-08-17T02:02:11;8.53;;;6.93;;
31438;SDS011;18062;48.872;9.220;2023-08-17T02:04:39;8.13;;;6.93;;
31438;SDS011;18062;48.872;9.220;2023-08-17T02:07:05;8.73;;;6.87;;
31438;SDS011;18062;48.872;9.220;2023-08-17T02:09:31;7.90;;;6.67;;
31438;SDS011;18062;48.872;9.220;2023-08-17T02:11:57;8.30;;;7.33;;
31438;SDS011;18062;48.872;9.220;2023-08-17T02:14:23;5.97;;;5.37;;
31438;SDS011;18062;48.872;9.220;2023-08-17T02:16:49;8.90;;;7.60;;
31438;SDS011;18062;48.872;9.220;2023-08-17T02:19:15;8.13;;;6.63;;
31438;SDS011;18062;48.872;9.220;2023-08-17T02:21:41;8.87;;;7.73;;
31438;SDS011;18062;48.872;9.220;2023-08-17T02:24:07;7.33;;;6.60;;
31438;SDS011;18062;48.872;9.220;2023-08-17T02:26:33;6.87;;;6.17;;
31438;SDS011;18062;48.872;9.220;2023-08-17T02:28:59;9.07;;;8.13;;
31438;SDS011;18062;48.872;9.220;2023-08-17T02:31:25;8.60;;;6.30;;
31438;SDS011;18062;48.872;9.220;2023-08-17T02:33:51;8.07;;;7.27;;
31438;SDS011;18062;48.872;9.220;2023-08-17T02:36:17;9.83;;;6.87;;
31438;SDS011;18062;48.872;9.220;2023-08-17T02:38:43;9.10;;;7.90;;
31438;SDS011;18062;48.872;9.220;2023-08-17T02:41:09;8.70;;;6.60;;
31438;SDS011;18062;48.872;9.220;2023-08-17T02:43:35;9.07;;;7.03;;
31438;SDS011;18062;48.872;9.220;2023-08-17T02:46:01;10.83;;;7.73;;
31438;SDS011;18062;48.872;9.220;2023-08-17T02:48:29;8.97;;;7.07;;
31438;SDS011;18062;48.872;9.220;2023-08-17T02:50:55;6.07;;;5.37;;
31438;SDS011;18062;48.872;9.220;2023-08-17T02:53:21;13.73;;;7.63;;
31438;SDS011;18062;48.872;9.220;2023-08-17T02:55:47;5.93;;;5.33;;
31438;SDS011;18062;48.872;9.220;2023-08-17T02:58:13;6.53;;;5.83;;
31438;SDS011;18062;48.872;9.220;2023-08-17T03:00:39;6.63;;;5.63;;
31438;SDS011;18062;48.872;9.220;2023-08-17T03:03:05;7.73;;;6.57;;
31438;SDS011;18062;48.872;9.220;2023-08-17T03:05:31;6.77;;;5.77;;
31438;SDS011;18062;48.872;9.220;2023-08-17T03:07:57;6.10;;;5.13;;
31438;SDS011;18062;48.872;9.220;2023-08-17T03:10:23;7.50;;;5.63;;
31438;SDS011;18062;48.872;9.220;2023-08-17T03:12:50;8.23;;;6.43;;
31438;SDS011;18062;48.872;9.220;2023-08-17T03:15:16;7.20;;;5.70;;
31438;SDS011;18062;48.872;9.220;2023-08-17T03:17:42;7.87;;;6.37;;
31438;SDS011;18062;48.872;9.220;2023-08-17T03:20:08;7.33;;;5.13;;
31438;SDS011;18062;48.872;9.220;2023-08-17T03:22:35;11.10;;;6.70;;
31438;SDS011;18062;48.872;9.220;2023-08-17T03:25:01;8.57;;;6.50;;
31438;SDS011;18062;48.872;9.220;2023-08-17T03:27:27;9.60;;;6.80;;
31438;SDS011;18062;48.872;9.220;2023-08-17T03:29:53;7.80;;;6.37;;
31438;SDS011;18062;48.872;9.220;2023-08-17T03:32:20;7.53;;;6.47;;
31438;SDS011;18062;48.872;9.220;2023-08-17T03:34:45;9.10;;;6.60;;
31438;SDS011;18062;48.872;9.220;2023-08-17T03:37:11;8.03;;;6.17;;
31438;SDS011;18062;48.872;9.220;2023-08-17T03:39:37;9.00;;;5.90;;
31438;SDS011;18062;48.872;9.220;2023-08-17T03:42:03;9.20;;;5.70;;
31438;SDS011;18062;48.872;9.220;2023-08-17T03:44:29;7.13;;;5.27;;
31438;SDS011;18062;48.872;9.220;2023-08-17T03:46:55;7.63;;;6.07;;
31438;SDS011;18062;48.872;9.220;2023-08-17T03:49:22;9.27;;;7.00;;
31438;SDS011;18062;48.872;9.220;2023-08-17T03:51:48;7.37;;;5.63;;
31438;SDS011;18062;48.872;9.220;2023-08-17T03:54:14;9.83;;;6.17;;
31438;SDS011;18062;48.872;9.220;2023-08-17T03:56:40;9.43;;;6.83;;
31438;SDS011;18062;48.872;9.220;2023-08-17T03:59:13;7.03;;;5.70;;
31438;SDS011;18062;48.872;9.220;2023-08-17T04:01:47;8.03;;;6.63;;
31438;SDS011;18062;48.872;9.220;2023-08-17T04:04:25;9.27;;;6.97;;
31438;SDS011;18062;48.872;9.220;2023-08-17T04:06:53;6.43;;;5.20;;
31438;SDS011;18062;48.872;9.220;2023-08-17T04:09:22;9.40;;;6.40;;
31438;SDS011;18062;48.872;9.220;2023-08-17T04:12:01;6.17;;;5.50;;
31438;SDS011;18062;48.872;9.220;2023-08-17T04:14:32;11.27;;;7.80;;
31438;SDS011;18062;48.872;9.220;2023-08-17T04:17:11;10.87;;;7.00;;
31438;SDS011;18062;48.872;9.220;2023-08-17T04:19:37;9.80;;;7.83;;
31438;SDS011;18062;48.872;9.220;2023-08-17T04:22:05;14.07;;;9.27;;
31438;SDS011;18062;48.872;9.220;2023-08-17T04:24:32;10.73;;;7.27;;
31438;SDS011;18062;48.872;9.220;2023-08-17T04:27:03;9.10;;;6.80;;
31438;SDS011;18062;48.872;9.220;2023-08-17T04:29:35;13.40;;;7.77;;
31438;SDS011;18062;48.872;9.220;2023-08-17T04:32:28;11.17;;;6.73;;
31438;SDS011;18062;48.872;9.220;2023-08-17T04:38:04;10.00;;;7.57;;
31438;SDS011;18062;48.872;9.220;2023-08-17T04:40:40;12.07;;;7.13;;
31438;SDS011;18062;48.872;9.220;2023-08-17T04:43:09;12.90;;;7.00;;
31438;SDS011;18062;48.872;9.220;2023-08-17T04:45:41;10.57;;;8.17;;
31438;SDS011;18062;48.872;9.220;2023-08-17T04:48:35;10.93;;;7.77;;
31438;SDS011;18062;48.872;9.220;2023-08-17T04:51:02;10.88;;;7.65;;
31438;SDS011;18062;48.872;9.220;2023-08-17T04:53:33;10.87;;;7.03;;
31438;SDS011;18062;48.872;9.220;2023-08-17T04:56:08;9.63;;;6.50;;
31438;SDS011;18062;48.872;9.220;2023-08-17T04:58:37;11.97;;;8.00;;
31438;SDS011;18062;48.872;9.220;2023-08-17T05:01:10;11.53;;;8.07;;
31438;SDS011;18062;48.872;9.220;2023-08-17T05:03:39;16.33;;;9.63;;
31438;SDS011;18062;48.872;9.220;2023-08-17T05:06:08;9.20;;;6.73;;
31438;SDS011;18062;48.872;9.220;2023-08-17T05:11:28;18.23;;;9.87;;
31438;SDS011;18062;48.872;9.220;2023-08-17T05:16:52;13.77;;;8.73;;
31438;SDS011;18062;48.872;9.220;2023-08-17T05:19:18;11.60;;;6.87;;
31438;SDS011;18062;48.872;9.220;2023-08-17T05:21:44;7.47;;;6.07;;
31438;SDS011;18062;48.872;9.220;2023-08-17T05:24:10;10.77;;;8.00;;
31438;SDS011;18062;48.872;9.220;2023-08-17T05:26:36;16.17;;;9.10;;
31438;SDS011;18062;48.872;9.220;2023-08-17T05:29:02;13.37;;;7.70;;
31438;SDS011;18062;48.872;9.220;2023-08-17T05:31:28;17.97;;;9.00;;
31438;SDS011;18062;48.872;9.220;2023-08-17T05:33:54;11.77;;;8.40;;
31438;SDS011;18062;48.872;9.220;2023-08-17T05:36:20;13.67;;;9.03;;
31438;SDS011;18062;48.872;9.220;2023-08-17T05:38:46;14.43;;;8.33;;
31438;SDS011;18062;48.872;9.220;2023-08-17T05:41:12;9.47;;;7.67;;
31438;SDS011;18062;48.872;9.220;2023-08-17T05:43:38;14.53;;;10.57;;
31438;SDS011;18062;48.872;9.220;2023-08-17T05:46:04;13.70;;;8.60;;
31438;SDS011;18062;48.872;9.220;2023-08-17T05:48:32;20.07;;;10.43;;
31438;SDS011;18062;48.872;9.220;2023-08-17T05:50:58;15.57;;;10.17;;
31438;SDS011;18062;48.872;9.220;2023-08-17T05:53:24;13.33;;;9.60;;
31438;SDS011;18062;48.872;9.220;2023-08-17T05:55:50;6.77;;;5.03;;
31438;SDS011;18062;48.872;9.220;2023-08-17T05:58:16;8.63;;;7.37;;
31438;SDS011;18062;48.872;9.220;2023-08-17T06:00:42;17.53;;;11.03;;
31438;SDS011;18062;48.872;9.220;2023-08-17T06:03:08;12.65;;;9.60;;
31438;SDS011;18062;48.872;9.220;2023-08-17T06:05:34;16.67;;;10.32;;
31438;SDS011;18062;48.872;9.220;2023-08-17T06:08:00;19.45;;;11.07;;
31438;SDS011;18062;48.872;9.220;2023-08-17T06:10:26;13.55;;;9.70;;
31438;SDS011;18062;48.872;9.220;2023-08-17T06:12:53;14.88;;;10.55;;
31438;SDS011;18062;48.872;9.220;2023-08-17T06:15:19;12.02;;;8.63;;
31438;SDS011;18062;48.872;9.220;2023-08-17T06:17:45;13.68;;;10.40;;
31438;SDS011;18062;48.872;9.220;2023-08-17T06:20:11;12.43;;;10.40;;
31438;SDS011;18062;48.872;9.220;2023-08-17T06:22:38;13.70;;;9.35;;
31438;SDS011;18062;48.872;9.220;2023-08-17T06:25:04;11.07;;;8.57;;
31438;SDS011;18062;48.872;9.220;2023-08-17T06:27:31;12.10;;;8.73;;
31438;SDS011;18062;48.872;9.220;2023-08-17T06:29:57;11.57;;;8.27;;
31438;SDS011;18062;48.872;9.220;2023-08-17T06:32:23;8.10;;;7.30;;
31438;SDS011;18062;48.872;9.220;2023-08-17T06:34:49;12.23;;;8.32;;
31438;SDS011;18062;48.872;9.220;2023-08-17T06:37:15;7.45;;;5.68;;
31438;SDS011;18062;48.872;9.220;2023-08-17T06:39:41;10.15;;;8.00;;
31438;SDS011;18062;48.872;9.220;2023-08-17T06:42:07;11.13;;;7.57;;
31438;SDS011;18062;48.872;9.220;2023-08-17T06:44:33;6.82;;;6.13;;
31438;SDS011;18062;48.872;9.220;2023-08-17T06:46:59;8.82;;;7.45;;
31438;SDS011;18062;48.872;9.220;2023-08-17T06:49:25;11.65;;;7.53;;
31438;SDS011;18062;48.872;9.220;2023-08-17T06:51:52;10.77;;;8.55;;
31438;SDS011;18062;48.872;9.220;2023-08-17T06:54:18;9.93;;;6.78;;
31438;SDS011;18062;48.872;9.220;2023-08-17T06:56:44;7.78;;;6.97;;
31438;SDS011;18062;48.872;9.220;2023-08-17T06:59:10;7.10;;;5.03;;
31438;SDS011;18062;48.872;9.220;2023-08-17T07:01:37;12.30;;;8.07;;
31438;SDS011;18062;48.872;9.220;2023-08-17T07:04:03;9.70;;;7.65;;
31438;SDS011;18062;48.872;9.220;2023-08-17T07:06:29;7.93;;;7.00;;
31438;SDS011;18062;48.872;9.220;2023-08-17T07:08:55;6.78;;;5.50;;
31438;SDS011;18062;48.872;9.220;2023-08-17T07:11:22;8.15;;;7.07;;
31438;SDS011;18062;48.872;9.220;2023-08-17T07:13:48;6.60;;;6.00;;
31438;SDS011;18062;48.872;9.220;2023-08-17T07:16:14;9.38;;;7.25;;
31438;SDS011;18062;48.872;9.220;2023-08-17T07:18:40;8.52;;;6.93;;
31438;SDS011;18062;48.872;9.220;2023-08-17T07:21:06;8.30;;;7.15;;
31438;SDS011;18062;48.872;9.220;2023-08-17T07:23:32;7.75;;;5.82;;
31438;SDS011;18062;48.872;9.220;2023-08-17T07:25:58;5.95;;;5.35;;
31438;SDS011;18062;48.872;9.220;2023-08-17T07:28:24;6.53;;;5.50;;
31438;SDS011;18062;48.872;9.220;2023-08-17T07:30:50;8.00;;;6.75;;
31438;SDS011;18062;48.872;9.220;2023-08-17T07:33:16;8.02;;;7.03;;
31438;SDS011;18062;48.872;9.220;2023-08-17T07:35:42;8.80;;;6.70;;
31438;SDS011;18062;48.872;9.220;2023-08-17T07:38:08;6.57;;;5.90;;
31438;SDS011;18062;48.872;9.220;2023-08-17T07:40:34;7.55;;;6.45;;
31438;SDS011;18062;48.872;9.220;2023-08-17T07:43:00;6.22;;;5.47;;
31438;SDS011;18062;48.872;9.220;2023-08-17T07:45:26;8.95;;;7.60;;
31438;SDS011;18062;48.872;9.220;2023-08-17T07:47:52;6.85;;;6.15;;
31438;SDS011;18062;48.872;9.220;2023-08-17T07:50:18;7.38;;;6.68;;
31438;SDS011;18062;48.872;9.220;2023-08-17T07:52:46;5.97;;;5.38;;
31438;SDS011;18062;48.872;9.220;2023-08-17T07:55:12;8.65;;;7.72;;
31438;SDS011;18062;48.872;9.220;2023-08-17T07:57:38;7.45;;;5.57;;
31438;SDS011;18062;48.872;9.220;2023-08-17T08:00:04;5.88;;;5.28;;
31438;SDS011;18062;48.872;9.220;2023-08-17T08:02:31;7.25;;;5.32;;
31438;SDS011;18062;48.872;9.220;2023-08-17T08:04:57;8.23;;;7.32;;
31438;SDS011;18062;48.872;9.220;2023-08-17T08:07:23;5.97;;;5.38;;
31438;SDS011;18062;48.872;9.220;2023-08-17T08:09:49;8.10;;;6.32;;
31438;SDS011;18062;48.872;9.220;2023-08-17T08:12:15;10.68;;;7.65;;
31438;SDS011;18062;48.872;9.220;2023-08-17T08:14:41;7.57;;;6.38;;
31438;SDS011;18062;48.872;9.220;2023-08-17T08:17:07;5.78;;;4.93;;
31438;SDS011;18062;48.872;9.220;2023-08-17T08:19:33;7.28;;;5.40;;
31438;SDS011;18062;48.872;9.220;2023-08-17T08:21:59;7.05;;;6.20;;
31438;SDS011;18062;48.872;9.220;2023-08-17T08:24:25;7.97;;;5.93;;
31438;SDS011;18062;48.872;9.220;2023-08-17T08:26:56;5.28;;;4.65;;
31438;SDS011;18062;48.872;9.220;2023-08-17T08:29:22;5.20;;;4.53;;
31438;SDS011;18062;48.872;9.220;2023-08-17T08:31:48;5.75;;;5.25;;
31438;SDS011;18062;48.872;9.220;2023-08-17T08:34:14;5.55;;;5.05;;
31438;SDS011;18062;48.872;9.220;2023-08-17T08:36:40;7.70;;;6.03;;
31438;SDS011;18062;48.872;9.220;2023-08-17T08:39:06;6.30;;;5.32;;
31438;SDS011;18062;48.872;9.220;2023-08-17T08:41:32;7.78;;;6.78;;
31438;SDS011;18062;48.872;9.220;2023-08-17T08:43:59;8.18;;;7.15;;
31438;SDS011;18062;48.872;9.220;2023-08-17T08:46:26;6.75;;;5.53;;
31438;SDS011;18062;48.872;9.220;2023-08-17T08:48:55;8.52;;;6.25;;
31438;SDS011;18062;48.872;9.220;2023-08-17T08:51:23;8.93;;;7.13;;
31438;SDS011;18062;48.872;9.220;2023-08-17T08:53:52;5.95;;;5.35;;
31438;SDS011;18062;48.872;9.220;2023-08-17T08:56:20;7.00;;;6.18;;
31438;SDS011;18062;48.872;9.220;2023-08-17T08:58:48;5.95;;;5.38;;
31438;SDS011;18062;48.872;9.220;2023-08-17T09:01:15;5.80;;;5.25;;
31438;SDS011;18062;48.872;9.220;2023-08-17T09:03:42;5.55;;;5.00;;
31438;SDS011;18062;48.872;9.220;2023-08-17T09:06:08;5.90;;;5.30;;
31438;SDS011;18062;48.872;9.220;2023-08-17T09:08:35;5.63;;;4.95;;
31438;SDS011;18062;48.872;9.220;2023-08-17T09:11:01;6.97;;;4.90;;
31438;SDS011;18062;48.872;9.220;2023-08-17T09:13:28;7.03;;;5.90;;
31438;SDS011;18062;48.872;9.220;2023-08-17T09:15:54;4.93;;;4.43;;
31438;SDS011;18062;48.872;9.220;2023-08-17T09:18:20;8.43;;;5.22;;
31438;SDS011;18062;48.872;9.220;2023-08-17T09:20:46;4.97;;;4.47;;
31438;SDS011;18062;48.872;9.220;2023-08-17T09:23:16;4.72;;;4.32;;
31438;SDS011;18062;48.872;9.220;2023-08-17T09:25:44;6.90;;;6.07;;
31438;SDS011;18062;48.872;9.220;2023-08-17T09:28:11;6.95;;;6.25;;
31438;SDS011;18062;48.872;9.220;2023-08-17T09:30:49;4.50;;;4.10;;
31438;SDS011;18062;48.872;9.220;2023-08-17T09:33:16;5.28;;;4.85;;
31438;SDS011;18062;48.872;9.220;2023-08-17T09:35:42;5.15;;;4.65;;
31438;SDS011;18062;48.872;9.220;2023-08-17T09:38:08;4.50;;;3.97;;
31438;SDS011;18062;48.872;9.220;2023-08-17T09:40:34;6.32;;;5.03;;
31438;SDS011;18062;48.872;9.220;2023-08-17T09:43:01;5.68;;;5.10;;
31438;SDS011;18062;48.872;9.220;2023-08-17T09:45:27;4.88;;;4.45;;
31438;SDS011;18062;48.872;9.220;2023-08-17T09:47:54;4.15;;;3.83;;
31438;SDS011;18062;48.872;9.220;2023-08-17T09:50:23;6.10;;;5.50;;
31438;SDS011;18062;48.872;9.220;2023-08-17T09:52:53;6.07;;;5.28;;
31438;SDS011;18062;48.872;9.220;2023-08-17T09:55:22;4.32;;;3.92;;
31438;SDS011;18062;48.872;9.220;2023-08-17T09:57:51;3.95;;;3.65;;
31438;SDS011;18062;48.872;9.220;2023-08-17T10:00:19;8.30;;;7.47;;
31438;SDS011;18062;48.872;9.220;2023-08-17T10:02:45;4.93;;;4.53;;
31438;SDS011;18062;48.872;9.220;2023-08-17T10:05:14;5.50;;;5.00;;
31438;SDS011;18062;48.872;9.220;2023-08-17T10:07:43;5.60;;;5.10;;
31438;SDS011;18062;48.872;9.220;2023-08-17T10:10:09;4.15;;;3.85;;
31438;SDS011;18062;48.872;9.220;2023-08-17T10:12:47;5.93;;;5.43;;
31438;SDS011;18062;48.872;9.220;2023-08-17T10:15:15;5.85;;;5.35;;
31438;SDS011;18062;48.872;9.220;2023-08-17T10:17:49;10.68;;;6.57;;
31438;SDS011;18062;48.872;9.220;2023-08-17T10:20:19;5.28;;;4.78;;
31438;SDS011;18062;48.872;9.220;2023-08-17T10:22:52;5.22;;;4.70;;
31438;SDS011;18062;48.872;9.220;2023-08-17T10:25:19;6.25;;;5.55;;
31438;SDS011;18062;48.872;9.220;2023-08-17T10:27:45;4.97;;;4.03;;
31438;SDS011;18062;48.872;9.220;2023-08-17T10:30:13;4.68;;;4.28;;
31438;SDS011;18062;48.872;9.220;2023-08-17T10:32:39;5.07;;;4.63;;
31438;SDS011;18062;48.872;9.220;2023-08-17T10:35:10;5.65;;;4.05;;
31438;SDS011;18062;48.872;9.220;2023-08-17T10:37:36;5.60;;;5.10;;
31438;SDS011;18062;48.872;9.220;2023-08-17T10:40:03;5.10;;;4.70;;
31438;SDS011;18062;48.872;9.220;2023-08-17T10:42:30;4.85;;;4.50;;
31438;SDS011;18062;48.872;9.220;2023-08-17T10:44:57;6.18;;;5.57;;
31438;SDS011;18062;48.872;9.220;2023-08-17T10:47:26;6.53;;;5.75;;
31438;SDS011;18062;48.872;9.220;2023-08-17T10:50:01;5.80;;;5.22;;
31438;SDS011;18062;48.872;9.220;2023-08-17T10:55:05;5.32;;;4.82;;
31438;SDS011;18062;48.872;9.220;2023-08-17T10:57:32;5.35;;;4.85;;
31438;SDS011;18062;48.872;9.220;2023-08-17T11:00:06;4.55;;;4.15;;
31438;SDS011;18062;48.872;9.220;2023-08-17T11:02:36;4.78;;;4.38;;
31438;SDS011;18062;48.872;9.220;2023-08-17T11:05:03;5.18;;;4.68;;
31438;SDS011;18062;48.872;9.220;2023-08-17T11:07:42;4.38;;;4.07;;
31438;SDS011;18062;48.872;9.220;2023-08-17T11:12:46;4.93;;;4.53;;
31438;SDS011;18062;48.872;9.220;2023-08-17T11:15:13;4.78;;;4.38;;
31438;SDS011;18062;48.872;9.220;2023-08-17T11:17:39;4.95;;;4.55;;
31438;SDS011;18062;48.872;9.220;2023-08-17T11:20:05;4.50;;;4.20;;
31438;SDS011;18062;48.872;9.220;2023-08-17T11:22:33;5.10;;;4.60;;
31438;SDS011;18062;48.872;9.220;2023-08-17T11:25:00;5.35;;;4.95;;
31438;SDS011;18062;48.872;9.220;2023-08-17T11:27:26;4.78;;;3.80;;
31438;SDS011;18062;48.872;9.220;2023-08-17T11:29:55;5.50;;;5.03;;
31438;SDS011;18062;48.872;9.220;2023-08-17T11:32:21;5.25;;;4.85;;
31438;SDS011;18062;48.872;9.220;2023-08-17T11:34:48;4.45;;;3.90;;
31438;SDS011;18062;48.872;9.220;2023-08-17T11:37:15;4.07;;;3.75;;
31438;SDS011;18062;48.872;9.220;2023-08-17T11:39:41;4.93;;;4.35;;
31438;SDS011;18062;48.872;9.220;2023-08-17T11:42:07;5.25;;;4.85;;
31438;SDS011;18062;48.872;9.220;2023-08-17T11:44:34;5.82;;;5.28;;
31438;SDS011;18062;48.872;9.220;2023-08-17T11:47:00;6.57;;;5.22;;
31438;SDS011;18062;48.872;9.220;2023-08-17T11:49:26;4.95;;;4.45;;
31438;SDS011;18062;48.872;9.220;2023-08-17T11:51:52;4.28;;;3.83;;
31438;SDS011;18062;48.872;9.220;2023-08-17T11:54:18;4.10;;;3.80;;
31438;SDS011;18062;48.872;9.220;2023-08-17T11:56:44;5.22;;;4.78;;
31438;SDS011;18062;48.872;9.220;2023-08-17T11:59:10;5.63;;;5.03;;
31438;SDS011;18062;48.872;9.220;2023-08-17T12:01:39;7.25;;;4.72;;
31438;SDS011;18062;48.872;9.220;2023-08-17T12:04:05;5.93;;;5.25;;
31438;SDS011;18062;48.872;9.220;2023-08-17T12:06:31;4.70;;;4.30;;
31438;SDS011;18062;48.872;9.220;2023-08-17T12:08:57;5.32;;;4.93;;
31438;SDS011;18062;48.872;9.220;2023-08-17T12:11:24;4.75;;;4.10;;
31438;SDS011;18062;48.872;9.220;2023-08-17T12:13:50;5.60;;;4.53;;
31438;SDS011;18062;48.872;9.220;2023-08-17T12:16:17;5.05;;;4.60;;
31438;SDS011;18062;48.872;9.220;2023-08-17T12:18:52;5.82;;;5.22;;
31438;SDS011;18062;48.872;9.220;2023-08-17T12:21:24;4.78;;;4.13;;
31438;SDS011;18062;48.872;9.220;2023-08-17T12:23:50;4.15;;;3.85;;
31438;SDS011;18062;48.872;9.220;2023-08-17T12:26:20;4.63;;;4.07;;
31438;SDS011;18062;48.872;9.220;2023-08-17T12:28:46;5.53;;;5.00;;
31438;SDS011;18062;48.872;9.220;2023-08-17T12:31:12;6.03;;;4.30;;
31438;SDS011;18062;48.872;9.220;2023-08-17T12:33:38;4.72;;;4.30;;
31438;SDS011;18062;48.872;9.220;2023-08-17T12:36:04;4.53;;;4.15;;
31438;SDS011;18062;48.872;9.220;2023-08-17T12:38:31;5.38;;;4.15;;
31438;SDS011;18062;48.872;9.220;2023-08-17T12:40:57;4.28;;;3.88;;
31438;SDS011;18062;48.872;9.220;2023-08-17T12:43:23;4.30;;;3.75;;
31438;SDS011;18062;48.872;9.220;2023-08-17T12:45:49;4.60;;;4.20;;
31438;SDS011;18062;48.872;9.220;2023-08-17T12:48:16;5.00;;;4.38;;
31438;SDS011;18062;48.872;9.220;2023-08-17T12:50:42;4.95;;;4.22;;
31438;SDS011;18062;48.872;9.220;2023-08-17T12:53:08;4.07;;;3.67;;
31438;SDS011;18062;48.872;9.220;2023-08-17T12:55:34;5.97;;;3.97;;
31438;SDS011;18062;48.872;9.220;2023-08-17T12:58:01;4.15;;;3.75;;
31438;SDS011;18062;48.872;9.220;2023-08-17T13:00:27;3.78;;;3.40;;
31438;SDS011;18062;48.872;9.220;2023-08-17T13:02:53;4.43;;;4.03;;
31438;SDS011;18062;48.872;9.220;2023-08-17T13:05:19;3.80;;;3.50;;
31438;SDS011;18062;48.872;9.220;2023-08-17T13:07:45;3.80;;;3.50;;
31438;SDS011;18062;48.872;9.220;2023-08-17T13:10:11;6.78;;;3.28;;
31438;SDS011;18062;48.872;9.220;2023-08-17T13:12:37;3.78;;;3.45;;
31438;SDS011;18062;48.872;9.220;2023-08-17T13:15:03;3.97;;;3.67;;
31438;SDS011;18062;48.872;9.220;2023-08-17T13:17:29;3.30;;;3.05;;
31438;SDS011;18062;48.872;9.220;2023-08-17T13:19:55;4.32;;;3.60;;
31438;SDS011;18062;48.872;9.220;2023-08-17T13:22:21;5.13;;;4.18;;
31438;SDS011;18062;48.872;9.220;2023-08-17T13:24:47;3.90;;;3.60;;
31438;SDS011;18062;48.872;9.220;2023-08-17T13:27:13;6.00;;;4.00;;
31438;SDS011;18062;48.872;9.220;2023-08-17T13:29:39;4.40;;;4.00;;
31438;SDS011;18062;48.872;9.220;2023-08-17T13:32:05;6.57;;;4.03;;
31438;SDS011;18062;48.872;9.220;2023-08-17T13:34:31;4.00;;;3.55;;
31438;SDS011;18062;48.872;9.220;2023-08-17T13:36:57;4.47;;;4.07;;
31438;SDS011;18062;48.872;9.220;2023-08-17T13:39:23;5.18;;;4.60;;
31438;SDS011;18062;48.872;9.220;2023-08-17T13:41:49;5.40;;;4.90;;
31438;SDS011;18062;48.872;9.220;2023-08-17T13:44:15;5.35;;;4.60;;
31438;SDS011;18062;48.872;9.220;2023-08-17T13:46:41;7.25;;;4.80;;
31438;SDS011;18062;48.872;9.220;2023-08-17T13:49:07;6.78;;;4.80;;
31438;SDS011;18062;48.872;9.220;2023-08-17T13:51:33;5.38;;;4.88;;
31438;SDS011;18062;48.872;9.220;2023-08-17T13:53:59;6.07;;;5.32;;
31438;SDS011;18062;48.872;9.220;2023-08-17T13:56:25;6.15;;;5.55;;
31438;SDS011;18062;48.872;9.220;2023-08-17T13:58:51;6.88;;;6.07;;
31438;SDS011;18062;48.872;9.220;2023-08-17T14:01:17;6.97;;;5.70;;
31438;SDS011;18062;48.872;9.220;2023-08-17T14:03:44;6.55;;;5.82;;
31438;SDS011;18062;48.872;9.220;2023-08-17T14:06:10;7.07;;;6.38;;
31438;SDS011;18062;48.872;9.220;2023-08-17T14:08:37;6.53;;;5.93;;
31438;SDS011;18062;48.872;9.220;2023-08-17T14:11:03;6.43;;;5.68;;
31438;SDS011;18062;48.872;9.220;2023-08-17T14:13:31;7.13;;;5.57;;
31438;SDS011;18062;48.872;9.220;2023-08-17T14:15:57;6.35;;;5.40;;
31438;SDS011;18062;48.872;9.220;2023-08-17T14:18:24;7.07;;;6.32;;
31438;SDS011;18062;48.872;9.220;2023-08-17T14:20:50;6.13;;;5.53;;
31438;SDS011;18062;48.872;9.220;2023-08-17T14:23:16;6.95;;;6.25;;
31438;SDS011;18062;48.872;9.220;2023-08-17T14:25:42;5.88;;;5.38;;
31438;SDS011;18062;48.872;9.220;2023-08-17T14:28:08;6.90;;;6.30;;
31438;SDS011;18062;48.872;9.220;2023-08-17T14:30:34;6.75;;;6.07;;
31438;SDS011;18062;48.872;9.220;2023-08-17T14:33:00;5.85;;;5.25;;
31438;SDS011;18062;48.872;9.220;2023-08-17T14:35:27;6.13;;;5.50;;
31438;SDS011;18062;48.872;9.220;2023-08-17T14:37:53;6.28;;;5.68;;
31438;SDS011;18062;48.872;9.220;2023-08-17T14:40:22;6.43;;;5.90;;
31438;SDS011;18062;48.872;9.220;2023-08-17T14:42:48;6.38;;;5.78;;
31438;SDS011;18062;48.872;9.220;2023-08-17T14:45:14;6.00;;;5.38;;
31438;SDS011;18062;48.872;9.220;2023-08-17T14:47:40;6.07;;;5.50;;
31438;SDS011;18062;48.872;9.220;2023-08-17T14:50:07;6.90;;;6.22;;
31438;SDS011;18062;48.872;9.220;2023-08-17T14:52:34;7.00;;;6.30;;
31438;SDS011;18062;48.872;9.220;2023-08-17T14:55:00;6.10;;;5.50;;
31438;SDS011;18062;48.872;9.220;2023-08-17T14:57:26;7.10;;;6.40;;
31438;SDS011;18062;48.872;9.220;2023-08-17T14:59:52;8.18;;;6.88;;
31438;SDS011;18062;48.872;9.220;2023-08-17T15:02:18;6.40;;;5.80;;
31438;SDS011;18062;48.872;9.220;2023-08-17T15:04:44;9.68;;;5.95;;